createdAt,value
2022-11-19T00:01:16.489Z,2.10
2022-11-19T00:03:48.770Z,2.03
2022-11-19T00:06:21.761Z,2.05
2022-11-19T00:08:51.092Z,2.65
2022-11-19T00:11:40.877Z,2.13
2022-11-19T00:14:08.359Z,1.98
2022-11-19T00:16:36.065Z,2.20
2022-11-19T00:19:03.822Z,1.95
2022-11-19T00:21:31.450Z,2.58
2022-11-19T00:24:00.742Z,2.00
2022-11-19T00:26:28.497Z,2.20
2022-11-19T00:28:56.396Z,2.28
2022-11-19T00:31:24.062Z,2.15
2022-11-19T00:33:54.143Z,2.70
2022-11-19T00:36:22.370Z,3.00
2022-11-19T00:38:50.010Z,3.20
2022-11-19T00:41:19.253Z,2.80
2022-11-19T00:43:50.371Z,2.70
2022-11-19T00:46:19.558Z,2.60
2022-11-19T00:48:48.595Z,2.67
2022-11-19T00:51:17.667Z,2.65
2022-11-19T00:53:45.645Z,3.05
2022-11-19T00:56:14.784Z,3.53
2022-11-19T00:58:44.351Z,3.30
2022-11-19T01:01:12.645Z,3.67
2022-11-19T01:03:41.142Z,3.70
2022-11-19T01:06:09.732Z,3.20
2022-11-19T01:08:37.736Z,3.70
2022-11-19T01:11:06.519Z,3.78
2022-11-19T01:13:37.537Z,3.55
2022-11-19T01:16:10.224Z,3.75
2022-11-19T01:18:38.938Z,3.95
2022-11-19T01:21:10.552Z,3.78
2022-11-19T01:23:38.912Z,3.55
2022-11-19T01:26:07.565Z,3.88
2022-11-19T01:28:35.843Z,3.42
2022-11-19T01:31:09.937Z,3.70
2022-11-19T01:33:38.664Z,4.05
2022-11-19T01:36:09.235Z,3.58
2022-11-19T01:38:37.132Z,3.42
2022-11-19T01:41:05.832Z,4.05
2022-11-19T01:43:45.607Z,3.65
2022-11-19T01:46:16.994Z,3.90
2022-11-19T01:48:50.140Z,3.75
2022-11-19T01:51:23.595Z,4.03
2022-11-19T01:53:52.870Z,3.95
2022-11-19T01:56:22.505Z,4.30
2022-11-19T01:58:55.796Z,3.75
2022-11-19T02:01:25.017Z,3.90
2022-11-19T02:03:53.735Z,4.25
2022-11-19T02:06:21.742Z,4.03
2022-11-19T02:08:51.552Z,4.00
2022-11-19T02:11:40.918Z,3.88
2022-11-19T02:14:36.661Z,3.67
2022-11-19T02:17:12.992Z,3.50
2022-11-19T02:20:12.228Z,3.60
2022-11-19T02:23:06.286Z,3.63
2022-11-19T02:25:50.292Z,3.70
2022-11-19T02:28:28.693Z,3.20
2022-11-19T02:31:04.823Z,3.22
2022-11-19T02:33:41.892Z,3.90
2022-11-19T02:36:15.911Z,3.13
2022-11-19T02:38:49.657Z,3.75
2022-11-19T02:41:37.856Z,3.67
2022-11-19T02:44:33.851Z,3.20
2022-11-19T02:47:07.751Z,3.40
2022-11-19T02:49:39.190Z,3.38
2022-11-19T02:52:07.137Z,3.30
2022-11-19T02:54:37.212Z,3.30
2022-11-19T02:57:05.069Z,3.28
2022-11-19T02:59:56.689Z,2.88
2022-11-19T03:02:47.137Z,2.78
2022-11-19T03:05:19.421Z,2.80
2022-11-19T03:07:47.218Z,2.70
2022-11-19T03:10:16.201Z,2.38
2022-11-19T03:12:51.156Z,2.53
2022-11-19T03:15:55.197Z,2.20
2022-11-19T03:18:33.052Z,2.35
2022-11-19T03:21:08.417Z,2.60
2022-11-19T03:23:41.125Z,2.53
2022-11-19T03:26:19.507Z,2.13
2022-11-19T03:28:49.041Z,2.60
2022-11-19T03:31:19.905Z,2.10
2022-11-19T03:33:53.441Z,2.20
2022-11-19T03:36:25.381Z,2.00
2022-11-19T03:38:56.761Z,1.92
2022-11-19T03:41:27.122Z,1.90
2022-11-19T03:43:59.791Z,1.70
2022-11-19T03:46:30.280Z,2.20
2022-11-19T03:49:01.386Z,1.85
2022-11-19T03:51:38.053Z,2.17
2022-11-19T03:54:05.912Z,1.92
2022-11-19T03:56:37.829Z,2.03
2022-11-19T03:59:08.464Z,1.80
2022-11-19T04:01:36.808Z,1.95
2022-11-19T04:04:24.360Z,2.00
2022-11-19T04:06:52.057Z,2.00
2022-11-19T04:09:19.904Z,1.92
2022-11-19T04:14:14.308Z,1.90
2022-11-19T04:16:41.985Z,2.00
2022-11-19T04:19:10.996Z,2.10
2022-11-19T04:21:38.774Z,1.60
2022-11-19T04:24:07.274Z,1.90
2022-11-19T04:26:34.925Z,1.63
2022-11-19T04:29:02.738Z,1.60
2022-11-19T04:31:30.380Z,1.73
2022-11-19T04:33:57.988Z,1.50
2022-11-19T04:36:26.988Z,1.55
2022-11-19T04:38:54.730Z,1.90
2022-11-19T04:41:22.423Z,1.50
2022-11-19T04:43:50.054Z,1.27
2022-11-19T04:46:17.812Z,1.55
2022-11-19T04:48:45.412Z,1.58
2022-11-19T04:51:13.082Z,1.52
2022-11-19T04:53:42.048Z,1.50
2022-11-19T04:56:09.682Z,1.60
2022-11-19T04:58:37.368Z,2.08
2022-11-19T05:01:05.537Z,1.77
2022-11-19T05:03:33.280Z,1.58
2022-11-19T05:06:01.399Z,1.58
2022-11-19T05:08:29.112Z,1.60
2022-11-19T05:10:58.146Z,1.88
2022-11-19T05:13:25.759Z,2.00
2022-11-19T05:15:53.410Z,1.73
2022-11-19T05:18:21.095Z,1.65
2022-11-19T05:20:48.938Z,1.98
2022-11-19T05:23:16.628Z,1.70
2022-11-19T05:25:44.317Z,1.67
2022-11-19T05:28:13.372Z,1.83
2022-11-19T05:30:40.991Z,1.85
2022-11-19T05:33:20.726Z,1.80
2022-11-19T05:35:48.366Z,2.13
2022-11-19T05:38:16.028Z,1.90
2022-11-19T05:40:45.187Z,2.45
2022-11-19T05:43:14.309Z,2.22
2022-11-19T05:45:42.040Z,2.13
2022-11-19T05:48:09.710Z,2.10
2022-11-19T05:50:37.363Z,2.17
2022-11-19T05:53:05.167Z,2.30
2022-11-19T05:55:34.999Z,2.20
2022-11-19T05:58:02.641Z,1.73
2022-11-19T06:00:32.166Z,2.00
2022-11-19T06:02:59.829Z,2.10
2022-11-19T06:05:27.476Z,2.25
2022-11-19T06:07:55.121Z,2.33
2022-11-19T06:10:22.759Z,2.10
2022-11-19T06:12:50.430Z,2.30
2022-11-19T06:15:18.232Z,2.17
2022-11-19T06:17:47.880Z,1.95
2022-11-19T06:20:15.665Z,2.08
2022-11-19T06:22:43.325Z,2.08
2022-11-19T06:25:11.009Z,2.10
2022-11-19T06:27:38.655Z,2.28
2022-11-19T06:30:07.625Z,2.42
2022-11-19T06:32:35.471Z,2.22
2022-11-19T06:35:05.129Z,2.25
2022-11-19T06:37:32.748Z,1.77
2022-11-19T06:40:00.431Z,1.77
2022-11-19T06:42:49.801Z,1.98
2022-11-19T06:45:18.610Z,1.83
2022-11-19T06:47:49.911Z,1.80
2022-11-19T06:50:19.244Z,1.92
2022-11-19T06:52:46.879Z,2.00
2022-11-19T06:55:14.545Z,1.83
2022-11-19T06:57:42.160Z,1.70
2022-11-19T07:00:11.314Z,1.40
2022-11-19T07:02:39.001Z,1.63
2022-11-19T07:05:07.573Z,1.60
2022-11-19T07:07:36.583Z,1.50
2022-11-19T07:10:04.432Z,1.52
2022-11-19T07:12:32.067Z,1.80
2022-11-19T07:15:03.955Z,1.25
2022-11-19T07:17:32.351Z,1.52
2022-11-19T07:20:00.146Z,1.27
2022-11-19T07:22:28.191Z,1.33
2022-11-19T07:24:57.234Z,1.33
2022-11-19T07:27:25.047Z,1.50
2022-11-19T07:29:52.724Z,1.52
2022-11-19T07:32:20.393Z,1.60
2022-11-19T07:34:48.034Z,1.77
2022-11-19T07:37:19.091Z,1.65
2022-11-19T07:39:46.925Z,1.67
2022-11-19T07:42:33.489Z,1.67
2022-11-19T07:45:01.138Z,1.67
2022-11-19T07:47:28.773Z,1.83
2022-11-19T07:49:56.459Z,1.50
2022-11-19T07:52:24.173Z,1.55
2022-11-19T07:54:51.780Z,1.60
2022-11-19T07:57:24.615Z,1.52
2022-11-19T08:02:22.469Z,1.65
2022-11-19T08:04:50.101Z,1.80
2022-11-19T08:07:18.326Z,1.70
2022-11-19T08:09:48.279Z,1.90
2022-11-19T08:12:15.930Z,1.90
2022-11-19T08:14:44.936Z,1.70
2022-11-19T08:17:30.379Z,1.80
2022-11-19T08:19:57.989Z,2.10
2022-11-19T08:22:26.953Z,1.70
2022-11-19T08:24:54.657Z,1.40
2022-11-19T08:27:22.311Z,1.38
2022-11-19T08:29:51.287Z,1.70
2022-11-19T08:32:18.979Z,1.30
2022-11-19T08:34:46.614Z,1.23
2022-11-19T08:37:14.527Z,1.40
2022-11-19T08:39:42.167Z,1.35
2022-11-19T08:42:30.608Z,1.30
2022-11-19T08:44:59.586Z,1.40
2022-11-19T08:47:27.243Z,1.40
2022-11-19T08:49:54.917Z,1.50
2022-11-19T08:52:22.575Z,1.50
2022-11-19T08:54:50.201Z,1.48
2022-11-19T08:57:17.862Z,1.50
2022-11-19T08:59:45.483Z,1.63
2022-11-19T09:02:14.439Z,1.60
2022-11-19T09:04:42.394Z,1.83
2022-11-19T09:07:10.062Z,1.60
2022-11-19T09:09:37.811Z,1.40
2022-11-19T09:12:06.050Z,1.30
2022-11-19T09:14:33.719Z,1.23
2022-11-19T09:17:01.407Z,1.50
2022-11-19T09:19:30.371Z,1.40
2022-11-19T09:21:58.027Z,1.30
2022-11-19T09:24:25.706Z,1.17
2022-11-19T09:26:59.539Z,1.25
2022-11-19T09:29:29.615Z,1.23
2022-11-19T09:31:57.259Z,1.40
2022-11-19T09:34:24.980Z,1.50
2022-11-19T09:36:54.044Z,1.45
2022-11-19T09:39:21.691Z,1.40
2022-11-19T09:41:55.725Z,1.10
2022-11-19T09:44:36.844Z,1.20
2022-11-19T09:47:12.750Z,1.00
2022-11-19T09:49:48.211Z,1.10
2022-11-19T09:52:20.883Z,1.45
2022-11-19T09:54:51.138Z,3.40
2022-11-19T09:57:27.795Z,4.90
2022-11-19T09:59:58.335Z,1.25
2022-11-19T10:02:26.110Z,1.33
2022-11-19T10:04:54.633Z,1.60
2022-11-19T10:07:34.172Z,3.53
2022-11-19T10:10:16.515Z,1.98
2022-11-19T10:13:20.286Z,1.35
2022-11-19T10:16:03.134Z,1.30
2022-11-19T10:18:41.505Z,1.30
2022-11-19T10:21:15.414Z,1.63
2022-11-19T10:23:51.205Z,1.40
2022-11-19T10:26:23.102Z,1.08
2022-11-19T10:28:56.177Z,1.48
2022-11-19T10:31:30.243Z,1.70
2022-11-19T10:34:04.576Z,1.67
2022-11-19T10:36:37.322Z,1.63
2022-11-19T10:39:11.880Z,1.55
2022-11-19T10:41:46.320Z,1.80
2022-11-19T10:44:36.611Z,1.60
2022-11-19T10:47:05.571Z,1.50
2022-11-19T10:49:38.977Z,1.70
2022-11-19T10:52:07.581Z,1.55
2022-11-19T10:54:39.094Z,1.83
2022-11-19T10:57:14.320Z,1.30
2022-11-19T10:59:42.623Z,1.50
2022-11-19T11:02:26.514Z,1.20
2022-11-19T11:05:18.188Z,1.30
2022-11-19T11:07:54.391Z,1.30
2022-11-19T11:10:46.619Z,1.30
2022-11-19T11:13:37.816Z,1.50
2022-11-19T11:16:08.334Z,1.30
2022-11-19T11:18:40.431Z,1.73
2022-11-19T11:21:12.006Z,1.70
2022-11-19T11:23:50.818Z,1.58
2022-11-19T11:26:26.023Z,1.48
2022-11-19T11:29:00.086Z,1.77
2022-11-19T11:31:46.402Z,1.55
2022-11-19T11:34:28.817Z,1.40
2022-11-19T11:36:57.366Z,1.65
2022-11-19T11:39:28.093Z,1.60
2022-11-19T11:42:07.173Z,1.83
2022-11-19T11:44:38.265Z,1.60
2022-11-19T11:47:14.040Z,1.90
2022-11-19T11:49:43.833Z,1.77
2022-11-19T11:52:19.132Z,1.80
2022-11-19T11:54:58.579Z,1.75
2022-11-19T11:57:29.553Z,1.75
2022-11-19T11:59:57.646Z,2.03
2022-11-19T12:02:30.275Z,1.80
2022-11-19T12:05:02.170Z,1.33
2022-11-19T12:07:44.697Z,1.92
2022-11-19T12:10:23.632Z,2.00
2022-11-19T12:12:59.645Z,2.00
2022-11-19T12:15:39.378Z,2.10
2022-11-19T12:18:15.224Z,1.90
2022-11-19T12:20:48.826Z,2.28
2022-11-19T12:23:30.242Z,1.92
2022-11-19T12:26:12.870Z,1.73
2022-11-19T12:28:59.142Z,1.77
2022-11-19T12:31:41.701Z,2.05
2022-11-19T12:34:28.209Z,1.90
2022-11-19T12:37:03.370Z,2.45
2022-11-19T12:39:42.232Z,2.25
2022-11-19T12:42:32.369Z,1.80
2022-11-19T12:45:07.266Z,2.35
2022-11-19T12:48:03.812Z,1.92
2022-11-19T12:50:38.973Z,1.88
2022-11-19T12:53:22.419Z,1.80
2022-11-19T12:56:04.336Z,1.67
2022-11-19T12:58:44.525Z,1.70
2022-11-19T13:01:16.675Z,1.50
2022-11-19T13:03:53.525Z,1.35
2022-11-19T13:06:26.188Z,1.40
2022-11-19T13:08:59.316Z,1.55
2022-11-19T13:11:36.317Z,1.67
2022-11-19T13:14:10.769Z,1.55
2022-11-19T13:16:41.277Z,1.67
2022-11-19T13:19:20.615Z,1.42
2022-11-19T13:21:55.008Z,1.63
2022-11-19T13:24:32.020Z,1.73
2022-11-19T13:27:04.788Z,1.77
2022-11-19T13:29:41.243Z,2.40
2022-11-19T13:32:18.898Z,2.40
2022-11-19T13:35:02.213Z,2.45
2022-11-19T13:37:44.571Z,2.10
2022-11-19T13:40:21.038Z,1.70
2022-11-19T13:46:03.829Z,1.85
2022-11-19T13:48:36.587Z,2.10
2022-11-19T13:51:09.716Z,4.00
2022-11-19T13:53:42.221Z,2.60
2022-11-19T13:56:15.197Z,2.70
2022-11-19T13:58:47.861Z,3.38
2022-11-19T14:01:55.727Z,2.13
2022-11-19T14:04:43.381Z,1.77
2022-11-19T14:07:30.861Z,1.90
2022-11-19T14:10:11.404Z,1.95
2022-11-19T14:12:53.143Z,1.65
2022-11-19T14:15:52.042Z,1.63
2022-11-19T14:18:43.383Z,1.75
2022-11-19T14:22:13.990Z,1.80
2022-11-19T14:25:16.895Z,1.75
2022-11-19T14:27:45.528Z,1.90
2022-11-19T14:30:18.974Z,1.60
2022-11-19T14:32:49.689Z,1.45
2022-11-19T14:35:39.555Z,1.60
2022-11-19T14:38:33.164Z,1.40
2022-11-19T14:41:15.252Z,2.33
2022-11-19T14:44:10.667Z,1.90
2022-11-19T14:46:47.922Z,1.90
2022-11-19T14:49:27.490Z,1.52
2022-11-19T14:51:57.639Z,1.50
2022-11-19T14:54:38.556Z,8.75
2022-11-19T14:57:17.873Z,2.35
2022-11-19T14:59:52.401Z,2.22
2022-11-19T15:02:26.128Z,3.33
2022-11-19T15:04:58.523Z,1.70
2022-11-19T15:07:36.262Z,1.83
2022-11-19T15:10:12.067Z,2.00
2022-11-19T15:13:02.417Z,1.90
2022-11-19T15:15:38.513Z,1.88
2022-11-19T15:18:35.955Z,2.10
2022-11-19T15:21:22.607Z,2.22
2022-11-19T15:24:04.606Z,2.25
2022-11-19T15:26:45.275Z,2.72
2022-11-19T15:29:23.468Z,5.32
2022-11-19T15:32:16.093Z,3.17
2022-11-19T15:35:13.554Z,6.38
2022-11-19T15:37:49.154Z,5.00
2022-11-19T15:40:19.853Z,4.10
2022-11-19T15:42:52.882Z,2.97
2022-11-19T15:45:24.498Z,3.10
2022-11-19T15:47:55.772Z,2.47
2022-11-19T15:50:25.502Z,2.35
2022-11-19T15:53:00.352Z,1.95
2022-11-19T15:55:30.775Z,2.08
2022-11-19T15:58:03.141Z,2.30
2022-11-19T16:00:32.882Z,2.10
2022-11-19T16:03:01.905Z,2.67
2022-11-19T16:05:32.818Z,2.50
2022-11-19T16:08:06.427Z,2.65
2022-11-19T16:10:36.523Z,2.70
2022-11-19T16:13:38.039Z,2.78
2022-11-19T16:16:33.543Z,2.58
2022-11-19T16:19:01.257Z,2.50
2022-11-19T16:21:33.351Z,3.20
2022-11-19T16:24:19.952Z,2.80
2022-11-19T16:26:48.650Z,2.90
2022-11-19T16:29:19.085Z,3.10
2022-11-19T16:31:50.503Z,2.78
2022-11-19T16:34:23.442Z,3.20
2022-11-19T16:36:52.452Z,3.25
2022-11-19T16:39:23.214Z,2.72
2022-11-19T16:42:14.097Z,3.28
2022-11-19T16:44:44.252Z,3.13
2022-11-19T16:47:22.482Z,3.25
2022-11-19T16:50:00.744Z,3.50
2022-11-19T16:52:43.272Z,3.00
2022-11-19T16:55:40.531Z,3.05
2022-11-19T16:58:16.557Z,2.95
2022-11-19T17:00:49.640Z,3.33
2022-11-19T17:03:30.078Z,3.55
2022-11-19T17:05:59.755Z,3.42
2022-11-19T17:08:30.983Z,4.25
2022-11-19T17:11:29.851Z,2.92
2022-11-19T17:13:57.502Z,3.63
2022-11-19T17:16:25.646Z,6.45
2022-11-19T17:18:54.682Z,7.38
2022-11-19T17:21:26.244Z,7.82
2022-11-19T17:23:54.518Z,4.65
2022-11-19T17:26:25.660Z,3.88
2022-11-19T17:28:58.634Z,3.38
2022-11-19T17:31:28.102Z,3.00
2022-11-19T17:34:00.632Z,3.47
2022-11-19T17:36:28.302Z,3.35
2022-11-19T17:38:56.024Z,4.53
2022-11-19T17:41:42.620Z,3.35
2022-11-19T17:44:30.324Z,4.18
2022-11-19T17:46:58.075Z,3.60
2022-11-19T17:49:27.124Z,2.90
2022-11-19T17:51:55.331Z,2.60
2022-11-19T17:54:23.974Z,2.63
2022-11-19T17:56:51.780Z,2.58
2022-11-19T17:59:19.455Z,4.15
2022-11-19T18:01:47.523Z,4.85
2022-11-19T18:04:15.340Z,5.03
2022-11-19T18:06:44.434Z,3.70
2022-11-19T18:09:12.249Z,3.60
2022-11-19T18:11:40.454Z,4.18
2022-11-19T18:14:10.039Z,3.75
2022-11-19T18:16:39.977Z,3.90
2022-11-19T18:19:12.624Z,20.50
2022-11-19T18:21:41.632Z,4.40
2022-11-19T18:24:13.473Z,3.80
2022-11-19T18:26:41.479Z,6.88
2022-11-19T18:29:09.403Z,5.47
2022-11-19T18:31:43.614Z,4.40
2022-11-19T18:34:15.246Z,3.63
2022-11-19T18:36:45.449Z,4.65
2022-11-19T18:39:14.507Z,3.70
2022-11-19T18:41:42.441Z,3.55
2022-11-19T18:44:31.721Z,5.30
2022-11-19T18:46:59.867Z,3.83
2022-11-19T18:49:27.778Z,3.15
2022-11-19T18:51:55.489Z,2.95
2022-11-19T18:54:24.482Z,3.00
2022-11-19T18:56:52.396Z,3.65
2022-11-19T18:59:20.268Z,2.90
2022-11-19T19:01:48.332Z,2.85
2022-11-19T19:04:16.761Z,3.25
2022-11-19T19:06:44.480Z,3.22
2022-11-19T19:09:12.112Z,4.00
2022-11-19T19:11:58.693Z,6.18
2022-11-19T19:14:26.387Z,6.15
2022-11-19T19:16:54.056Z,6.28
2022-11-19T19:19:21.911Z,5.72
2022-11-19T19:21:49.874Z,6.10
2022-11-19T19:24:17.808Z,5.63
2022-11-19T19:26:46.886Z,5.28
2022-11-19T19:29:14.682Z,4.90
2022-11-19T19:31:42.332Z,4.75
2022-11-19T19:34:09.992Z,4.72
2022-11-19T19:36:37.781Z,4.90
2022-11-19T19:39:05.627Z,5.05
2022-11-19T19:41:33.415Z,5.05
2022-11-19T19:44:04.412Z,4.93
2022-11-19T19:46:33.425Z,4.68
2022-11-19T19:49:01.194Z,4.72
2022-11-19T19:51:30.767Z,5.00
2022-11-19T19:53:58.472Z,4.10
2022-11-19T19:56:28.352Z,5.15
2022-11-19T19:58:57.887Z,6.68
2022-11-19T20:01:28.508Z,6.03
2022-11-19T20:04:01.636Z,6.25
2022-11-19T20:06:30.124Z,5.97
2022-11-19T20:08:57.840Z,5.60
2022-11-19T20:11:27.043Z,5.28
2022-11-19T20:13:56.166Z,5.25
2022-11-19T20:16:25.463Z,5.55
2022-11-19T20:18:55.693Z,6.53
2022-11-19T20:21:25.440Z,5.00
2022-11-19T20:23:53.624Z,4.85
2022-11-19T20:26:24.093Z,4.93
2022-11-19T20:28:55.624Z,5.25
2022-11-19T20:31:23.396Z,6.22
2022-11-19T20:33:55.809Z,5.72
2022-11-19T20:36:26.061Z,6.32
2022-11-19T20:38:54.266Z,6.63
2022-11-19T20:41:41.784Z,5.72
2022-11-19T20:44:21.809Z,6.90
2022-11-19T20:46:51.918Z,6.03
2022-11-19T20:49:23.651Z,7.03
2022-11-19T20:51:52.688Z,6.38
2022-11-19T20:54:22.251Z,6.47
2022-11-19T20:56:50.906Z,7.72
2022-11-19T20:59:19.710Z,7.22
2022-11-19T21:01:49.674Z,6.18
2022-11-19T21:04:17.732Z,7.05
2022-11-19T21:06:47.264Z,9.60
2022-11-19T21:09:15.817Z,7.63
2022-11-19T21:11:44.180Z,7.03
2022-11-19T21:14:12.024Z,6.10
2022-11-19T21:16:39.766Z,6.55
2022-11-19T21:19:07.487Z,6.38
2022-11-19T21:21:35.409Z,6.00
2022-11-19T21:24:04.871Z,4.65
2022-11-19T21:26:32.634Z,5.25
2022-11-19T21:29:01.401Z,4.80
2022-11-19T21:31:39.396Z,4.07
2022-11-19T21:34:08.606Z,4.38
2022-11-19T21:36:36.730Z,4.30
2022-11-19T21:39:07.049Z,4.55
2022-11-19T21:41:35.521Z,4.28
2022-11-19T21:44:03.878Z,4.70
2022-11-19T21:46:32.016Z,4.45
2022-11-19T21:49:00.002Z,5.05
2022-11-19T21:51:27.662Z,4.63
2022-11-19T21:53:56.022Z,4.80
2022-11-19T21:56:26.071Z,5.40
2022-11-19T21:58:53.763Z,6.03
2022-11-19T22:01:22.343Z,6.28
2022-11-19T22:03:50.011Z,5.60
2022-11-19T22:06:17.731Z,5.78
2022-11-19T22:08:45.666Z,6.13
2022-11-19T22:11:36.343Z,5.30
2022-11-19T22:14:07.268Z,5.05
2022-11-19T22:16:37.045Z,4.30
2022-11-19T22:19:05.587Z,4.40
2022-11-19T22:21:33.863Z,5.88
2022-11-19T22:24:01.618Z,4.70
2022-11-19T22:26:29.273Z,4.53
2022-11-19T22:28:57.368Z,7.50
2022-11-19T22:31:27.114Z,7.45
2022-11-19T22:33:55.529Z,7.82
2022-11-19T22:36:24.237Z,7.50
2022-11-19T22:38:52.765Z,5.78
2022-11-19T22:41:22.380Z,6.38
2022-11-19T22:43:50.675Z,6.72
2022-11-19T22:46:19.437Z,5.10
2022-11-19T22:48:49.220Z,4.35
2022-11-19T22:51:18.765Z,3.90
2022-11-19T22:53:46.689Z,4.72
2022-11-19T22:56:16.122Z,4.13
2022-11-19T23:06:25.517Z,4.00
2022-11-19T23:08:53.741Z,4.60
2022-11-19T23:11:37.655Z,4.05
2022-11-19T23:14:05.545Z,4.10
2022-11-19T23:16:33.293Z,4.60
2022-11-19T23:19:02.452Z,3.88
2022-11-19T23:21:30.913Z,4.50
2022-11-19T23:23:59.756Z,4.13
2022-11-19T23:26:28.916Z,3.58
2022-11-19T23:28:56.903Z,3.53
2022-11-19T23:31:26.332Z,3.45
2022-11-19T23:33:59.067Z,3.83
2022-11-19T23:36:30.435Z,3.78
2022-11-19T23:38:58.812Z,3.53
2022-11-19T23:41:26.851Z,3.97
2022-11-19T23:43:55.655Z,3.72
2022-11-19T23:46:25.346Z,3.67
2022-11-19T23:48:55.022Z,3.75
2022-11-19T23:51:25.118Z,3.28
2022-11-19T23:53:54.553Z,3.40
2022-11-19T23:56:23.846Z,3.70
2022-11-19T23:58:52.305Z,3.05
